Deer Lake, Canada
Current Conditions -  °F | °C
As of 10:00 PM on Monday 26 Jan 2015 (Local Time) from CYDF Reporting Station
Blowing Snow Blowing Snow  
Wind Chill: -3°   Ceiling: 1500
Heat Index: 14°   Visibility: 2mi
Dew Point:   Wind: 20mph
Humidity: 73%   Direction: 240°WSW
Pressure: 30.2"   Gusts: 26mph
Location:  49.21°N, 57.4°W
Report Text: CYDF 270100Z 24017G23KT 2SM -SHSN DRSN OVC015 M10/M14 A3020 RMK SC8 VIS VRBL 1-3 SLP228
Loading
Personal Weather Stations






























Interactive Weather Map New forecast layout! Learn more

10-Day Weather Forecast

Advertisements
Track Severe Weather on mobile